Time;durP1;ratioP1;P1;durP2;ratioP2;P2;SDS_P1;SDS_P2;PMS_P1;PMS_P2;Temp;Humidity;BMP_temperature;BMP_pressure;BME280_temperature;BME280_humidity;BME280_pressure;Samples;Min_cycle;Max_cycle;Signal;HPM_P1;HPM_P2
2022/07/07 00:00:11;;;;;;;1.70;0.70;;;;;;;16.17;79.19;98911.63;104342;1280;61997;-24
2022/07/07 00:02:39;;;;;;;1.70;0.90;;;;;;;16.13;78.64;98904.70;104198;1281;63076;-24
2022/07/07 00:05:07;;;;;;;1.10;0.80;;;;;;;15.89;79.56;98901.44;104364;1281;75744;-24
2022/07/07 00:07:35;;;;;;;2.30;1.00;;;;;;;15.68;80.29;98895.39;104464;1280;76976;-24
2022/07/07 00:10:03;;;;;;;2.30;0.80;;;;;;;15.47;81.16;98895.98;104192;1281;75330;-24
2022/07/07 00:12:31;;;;;;;0.90;0.90;;;;;;;15.83;80.37;98896.08;103904;1281;61148;-25
2022/07/07 00:14:59;;;;;;;1.40;0.90;;;;;;;16.12;78.74;98896.73;104214;1281;62157;-24
2022/07/07 00:17:26;;;;;;;1.10;0.90;;;;;;;16.02;78.87;98896.27;104390;1281;75196;-25
2022/07/07 00:19:53;;;;;;;1.90;1.10;;;;;;;15.88;79.58;98895.96;104358;1280;77364;-25
2022/07/07 00:22:21;;;;;;;1.50;1.10;;;;;;;15.59;80.68;98894.88;104394;1280;75473;-24
2022/07/07 00:24:48;;;;;;;1.10;0.80;;;;;;;15.43;81.97;98895.54;104194;1280;63058;-24
2022/07/07 00:27:16;;;;;;;1.00;0.90;;;;;;;15.74;80.97;98891.60;104176;1281;61955;-24
2022/07/07 00:29:44;;;;;;;1.00;0.80;;;;;;;16.05;79.51;98885.60;104427;1281;74218;-24
2022/07/07 00:32:11;;;;;;;2.30;1.10;;;;;;;16.03;79.11;98879.14;104491;1280;76997;-25
2022/07/07 00:34:39;;;;;;;1.90;1.10;;;;;;;15.81;80.14;98876.36;104414;1279;73277;-24
2022/07/07 00:37:06;;;;;;;1.20;0.90;;;;;;;15.55;81.51;98868.94;104053;1283;61989;-25
2022/07/07 00:39:35;;;;;;;1.10;0.90;;;;;;;15.40;82.16;98866.98;104337;1281;61185;-24
2022/07/07 00:42:03;;;;;;;1.30;0.90;;;;;;;15.75;81.09;98871.69;104406;1280;75736;-25
2022/07/07 00:44:31;;;;;;;3.80;1.10;;;;;;;15.91;80.28;98872.86;104237;1280;76056;-24
2022/07/07 00:46:58;;;;;;;1.70;1.10;;;;;;;15.88;79.98;98881.58;104152;1281;75372;-24
2022/07/07 00:49:26;;;;;;;2.00;1.10;;;;;;;15.63;81.34;98877.89;104273;1280;63107;-24
2022/07/07 00:51:55;;;;;;;8.60;1.30;;;;;;;15.36;82.46;98881.23;104108;1280;62786;-24
2022/07/07 00:54:22;;;;;;;1.90;1.20;;;;;;;15.39;82.39;98881.89;104279;1280;75209;-24
2022/07/07 00:56:50;;;;;;;1.70;1.20;;;;;;;15.73;81.00;98882.73;103909;1280;76027;-25
2022/07/07 00:59:37;;;;;;;3.10;1.30;;;;;;;15.64;80.60;98885.67;104210;1280;73301;-24
2022/07/07 01:02:04;;;;;;;1.80;1.20;;;;;;;15.59;80.86;98895.11;104172;1280;63095;-24
2022/07/07 01:04:32;;;;;;;1.50;1.20;;;;;;;15.35;81.74;98898.30;104166;1280;61681;-24
2022/07/07 01:07:00;;;;;;;1.20;0.80;;;;;;;15.21;82.67;98901.27;104186;1281;75567;-25
2022/07/07 01:09:28;;;;;;;1.50;1.20;;;;;;;15.69;80.75;98900.19;104449;1280;76000;-26
2022/07/07 01:11:56;;;;;;;1.80;1.00;;;;;;;15.82;79.56;98901.98;103877;1280;74226;-26
2022/07/07 01:14:24;;;;;;;2.60;1.20;;;;;;;15.80;79.20;98907.23;104145;1280;62780;-26
2022/07/07 01:16:53;;;;;;;1.90;1.30;;;;;;;15.49;80.44;98901.52;104157;1280;62772;-26
2022/07/07 01:19:21;;;;;;;2.50;0.80;;;;;;;15.29;81.43;98908.65;104163;1280;75794;-26
2022/07/07 01:21:54;;;;;;;1.00;0.90;;;;;;;15.53;80.25;98914.23;103886;1280;77077;-26
2022/07/07 01:24:22;;;;;;;;;;;;;;;15.83;79.07;98919.92;104096;1281;75391;-26
2022/07/07 01:26:50;;;;;;;1.70;1.00;;;;;;;15.77;78.77;98916.33;104117;1280;63066;-26
2022/07/07 01:29:17;;;;;;;1.10;1.00;;;;;;;15.59;79.36;98916.77;104099;1283;62007;-26
2022/07/07 01:31:45;;;;;;;2.10;1.30;;;;;;;15.34;80.02;98920.09;104372;1281;75712;-26
2022/07/07 01:34:12;;;;;;;3.90;0.70;;;;;;;15.13;81.40;98920.63;104458;1280;76513;-26
2022/07/07 01:36:39;;;;;;;1.20;1.00;;;;;;;15.51;80.43;98921.30;104475;1281;75502;-26
2022/07/07 01:39:07;;;;;;;2.70;1.10;;;;;;;15.85;78.27;98919.55;104405;1282;62028;-26
2022/07/07 01:41:34;;;;;;;3.20;1.00;;;;;;;15.73;78.28;98919.55;104321;1280;61958;-25
2022/07/07 01:44:01;;;;;;;2.90;1.40;;;;;;;15.49;79.52;98917.52;104169;1280;74749;-26
2022/07/07 01:46:29;;;;;;;3.40;1.10;;;;;;;15.24;80.39;98919.16;104286;1280;77018;-26
2022/07/07 01:57:45;;;;;;;3.70;1.00;;;;;;;15.57;78.60;98929.92;104536;1280;61864;-26
2022/07/07 02:00:14;;;;;;;1.40;1.00;;;;;;;15.37;79.44;98934.12;104152;1281;73998;-25
2022/07/07 02:02:41;;;;;;;1.30;1.00;;;;;;;15.12;80.17;98942.18;104306;1280;77785;-26
2022/07/07 02:14:25;;;;;;;1.50;1.20;;;;;;;15.42;78.90;98937.91;104273;1280;61038;-26
2022/07/07 02:16:52;;;;;;;4.50;1.30;;;;;;;15.18;80.02;98937.46;104351;1281;76043;-26
2022/07/07 02:19:19;;;;;;;0.70;0.70;;;;;;;14.92;81.22;98937.58;104413;1280;76710;-26
2022/07/07 02:21:47;;;;;;;2.10;0.90;;;;;;;15.18;80.75;98935.17;104435;1280;75433;-26
2022/07/07 02:24:17;;;;;;;1.60;1.00;;;;;;;15.51;79.11;98933.02;104441;1280;61883;-25
2022/07/07 02:26:44;;;;;;;1.40;1.10;;;;;;;15.42;79.14;98934.99;104213;1281;61332;-26
2022/07/07 02:29:12;;;;;;;1.50;1.10;;;;;;;15.16;80.13;98941.82;104331;1280;75813;-26
2022/07/07 02:31:39;;;;;;;3.30;1.30;;;;;;;14.92;80.96;98946.02;103846;1283;76982;-26
2022/07/07 02:34:07;;;;;;;1.30;0.60;;;;;;;14.73;81.93;98948.08;104226;1280;75522;-26
2022/07/07 02:36:34;;;;;;;1.00;0.90;;;;;;;15.12;81.10;98948.71;104414;1280;61171;-26
2022/07/07 02:39:02;;;;;;;2.30;1.10;;;;;;;15.51;79.24;98949.65;104311;1280;63156;-26
2022/07/07 02:41:29;;;;;;;1.10;1.00;;;;;;;15.49;79.05;98944.75;104342;1280;75864;-26
2022/07/07 02:43:57;;;;;;;3.90;1.10;;;;;;;15.33;79.60;98946.22;104014;1281;77027;-26
2022/07/07 02:46:24;;;;;;;2.70;1.20;;;;;;;15.11;80.54;98949.90;104265;1280;75424;-25
2022/07/07 02:48:51;;;;;;;1.00;0.90;;;;;;;14.87;81.48;98951.21;104202;1281;64438;-25
2022/07/07 02:51:19;;;;;;;2.00;1.10;;;;;;;15.18;81.09;98957.01;104308;1281;63065;-26
2022/07/07 02:53:46;;;;;;;2.10;1.10;;;;;;;15.58;79.38;98953.92;104457;1280;74434;-26
2022/07/07 02:56:13;;;;;;;1.40;1.10;;;;;;;15.57;78.79;98956.71;104442;1280;76829;-26
2022/07/07 02:58:41;;;;;;;2.70;1.20;;;;;;;15.36;79.63;98960.61;104173;1283;75364;-25
2022/07/07 03:01:09;;;;;;;1.70;1.30;;;;;;;15.03;81.00;98962.43;104252;1283;62091;-26
2022/07/07 03:03:37;;;;;;;1.30;1.00;;;;;;;14.86;81.74;98962.64;104367;1280;61674;-26
2022/07/07 03:06:04;;;;;;;1.60;0.90;;;;;;;15.29;80.74;98964.84;104279;1281;75896;-25
2022/07/07 03:08:31;;;;;;;2.60;1.10;;;;;;;15.59;79.17;98964.50;104421;1280;77166;-25
2022/07/07 03:10:59;;;;;;;1.70;1.20;;;;;;;15.54;78.91;98965.92;104401;1281;75109;-25
2022/07/07 03:13:27;;;;;;;2.00;1.10;;;;;;;15.31;80.10;98973.15;104381;1280;61156;-25
2022/07/07 03:15:55;;;;;;;2.90;1.20;;;;;;;15.03;81.35;98967.22;104290;1281;63307;-25
2022/07/07 03:18:22;;;;;;;1.90;0.90;;;;;;;14.84;82.62;98968.63;104282;1280;74783;-26
2022/07/07 03:20:51;;;;;;;2.10;1.00;;;;;;;15.25;81.19;98971.92;104280;1280;77131;-26
2022/07/07 03:23:19;;;;;;;3.50;1.30;;;;;;;15.62;79.32;98964.38;103932;1281;73685;-26
2022/07/07 03:25:46;;;;;;;6.70;1.30;;;;;;;15.54;79.33;98965.73;104425;1280;61176;-25
2022/07/07 03:28:15;;;;;;;2.00;1.20;;;;;;;15.38;80.43;98964.47;104524;1280;61161;-26
2022/07/07 03:30:42;;;;;;;5.40;1.30;;;;;;;15.16;81.06;98967.28;104412;1280;74359;-25
2022/07/07 03:33:10;;;;;;;1.40;0.90;;;;;;;14.99;82.51;98968.91;104428;1282;77002;-26
2022/07/07 03:35:38;;;;;;;4.60;1.10;;;;;;;15.35;81.08;98967.23;104990;1274;73605;-25
2022/07/07 03:38:05;;;;;;;2.90;1.20;;;;;;;15.63;79.74;98963.46;104870;1271;61742;-25
2022/07/07 03:40:34;;;;;;;1.40;1.30;;;;;;;15.69;79.75;98967.21;104773;1274;61037;-25
2022/07/07 03:43:01;;;;;;;4.10;1.30;;;;;;;15.55;79.86;98971.08;104952;1271;76658;-25
2022/07/07 03:45:29;;;;;;;5.90;1.60;;;;;;;15.36;80.92;98976.86;105086;1271;76108;-25
2022/07/07 03:47:58;;;;;;;2.30;0.90;;;;;;;15.27;81.74;98973.79;105063;1271;75180;-25
2022/07/07 03:50:25;;;;;;;2.80;1.40;;;;;;;15.62;80.34;98975.40;104776;1275;61021;-25
2022/07/07 03:52:53;;;;;;;3.30;1.30;;;;;;;16.06;78.90;98976.47;104895;1272;61955;-25
2022/07/07 03:55:20;;;;;;;1.90;1.50;;;;;;;15.97;78.26;98975.92;104745;1274;75364;-25
2022/07/07 03:57:48;;;;;;;1.70;1.50;;;;;;;15.87;79.12;98977.02;104584;1275;75244;-25
2022/07/07 04:00:16;;;;;;;2.30;1.70;;;;;;;15.63;79.95;98981.96;104695;1271;75426;-26
2022/07/07 04:02:43;;;;;;;3.30;1.10;;;;;;;15.53;80.50;98981.64;104830;1274;61991;-26
2022/07/07 04:05:10;;;;;;;3.50;1.30;;;;;;;15.91;79.23;98978.23;104705;1271;62114;-25
2022/07/07 04:07:38;;;;;;;1.90;1.50;;;;;;;16.09;78.20;98977.03;104906;1271;76486;-25
2022/07/07 04:10:06;;;;;;;2.80;1.40;;;;;;;16.04;78.16;98980.08;104656;1275;77130;-26
2022/07/07 04:12:33;;;;;;;2.40;1.70;;;;;;;16.07;78.73;98984.16;104623;1271;75388;-26
2022/07/07 04:15:00;;;;;;;3.40;1.80;;;;;;;15.93;78.97;98984.55;104972;1271;61151;-26
2022/07/07 04:17:30;;;;;;;4.20;1.40;;;;;;;15.93;79.49;98986.65;105088;1271;62967;-26
2022/07/07 04:19:57;;;;;;;1.60;1.40;;;;;;;16.55;78.13;98992.77;105011;1271;76563;-26
2022/07/07 04:22:24;;;;;;;2.20;1.30;;;;;;;16.78;75.54;98990.21;104814;1271;75714;-26
2022/07/07 04:24:52;;;;;;;2.30;1.70;;;;;;;16.73;75.13;98992.05;104940;1274;75466;-26
2022/07/07 04:27:19;;;;;;;2.90;1.60;;;;;;;16.45;76.48;98989.23;105020;1271;63042;-26
2022/07/07 04:29:47;;;;;;;3.60;1.60;;;;;;;16.38;76.91;98994.35;105106;1274;61161;-26
2022/07/07 04:32:14;;;;;;;1.90;1.60;;;;;;;16.11;77.93;98997.81;104916;1271;76635;-26
2022/07/07 04:34:42;;;;;;;2.00;1.40;;;;;;;16.12;78.61;98996.21;105100;1271;77049;-26
2022/07/07 04:37:09;;;;;;;2.20;1.50;;;;;;;16.55;76.94;99004.27;104851;1272;75465;-26
2022/07/07 04:39:36;;;;;;;2.30;1.60;;;;;;;16.71;75.91;99001.48;104936;1274;61143;-26
2022/07/07 04:42:06;;;;;;;3.00;1.60;;;;;;;16.80;75.91;98998.08;104765;1274;61913;-26
2022/07/07 04:44:34;;;;;;;2.70;1.70;;;;;;;16.57;76.20;98999.11;104720;1271;74603;-26
2022/07/07 04:47:01;;;;;;;1.70;1.60;;;;;;;16.38;77.44;99002.88;104805;1271;76906;-26
2022/07/07 04:49:28;;;;;;;6.20;1.40;;;;;;;16.34;77.68;99002.62;104811;1271;74415;-26
2022/07/07 04:51:56;;;;;;;2.20;1.50;;;;;;;16.79;76.58;99004.90;104686;1274;61160;-26
2022/07/07 04:54:24;;;;;;;3.30;1.70;;;;;;;17.04;74.84;99003.31;104776;1274;62370;-24
2022/07/07 04:56:52;;;;;;;1.70;1.60;;;;;;;17.23;74.13;99009.96;104914;1274;76403;-26
2022/07/07 04:59:19;;;;;;;6.10;1.50;;;;;;;17.22;73.34;99011.32;104860;1271;76490;-26
2022/07/07 05:01:46;;;;;;;3.30;1.70;;;;;;;17.01;73.41;99012.34;104824;1274;75671;-25
2022/07/07 05:04:14;;;;;;;1.60;1.50;;;;;;;16.78;74.43;99011.93;104914;1272;62022;-25
2022/07/07 05:06:41;;;;;;;1.60;1.00;;;;;;;16.86;74.27;99013.91;105063;1271;61155;-26
2022/07/07 05:09:09;;;;;;;1.60;1.20;;;;;;;17.34;73.45;99011.90;104727;1277;76405;-26
2022/07/07 05:11:37;;;;;;;1.70;1.10;;;;;;;17.84;71.01;99015.86;105041;1272;76721;-26
2022/07/07 05:14:04;;;;;;;5.30;1.30;;;;;;;17.97;70.67;99015.92;104798;1271;75435;-26
2022/07/07 05:16:31;;;;;;;1.30;1.20;;;;;;;17.85;70.50;99023.98;104859;1274;61121;-25
2022/07/07 05:18:59;;;;;;;2.60;1.50;;;;;;;17.71;70.99;99025.02;105104;1271;61038;-24
2022/07/07 05:21:26;;;;;;;2.00;1.30;;;;;;;17.63;71.12;99025.39;105087;1272;76500;-27
2022/07/07 05:23:54;;;;;;;1.50;1.30;;;;;;;17.66;71.50;99026.61;105085;1271;76145;-26
2022/07/07 05:26:21;;;;;;;2.40;1.00;;;;;;;17.67;70.99;99031.62;104869;1271;74353;-24
2022/07/07 05:28:49;;;;;;;1.50;1.00;;;;;;;18.27;68.99;99028.95;105101;1271;61154;-24
2022/07/07 05:31:16;;;;;;;2.10;1.10;;;;;;;18.68;67.65;99030.95;105081;1271;62843;-24
2022/07/07 05:33:43;;;;;;;2.90;1.20;;;;;;;18.70;66.06;99029.67;104909;1271;75711;-24
2022/07/07 05:36:11;;;;;;;3.90;1.30;;;;;;;18.75;65.88;99029.52;104841;1274;76005;-24
2022/07/07 05:38:38;;;;;;;2.70;1.50;;;;;;;18.68;65.20;99028.84;104894;1274;74308;-24
2022/07/07 05:41:06;;;;;;;2.50;1.50;;;;;;;18.61;67.85;99028.30;104758;1271;61221;-26
2022/07/07 05:43:33;;;;;;;3.50;1.70;;;;;;;18.58;67.14;99026.89;104989;1271;62275;-25
2022/07/07 05:46:03;;;;;;;3.60;1.50;;;;;;;18.85;66.49;99025.77;105002;1274;76376;-25
2022/07/07 05:48:32;;;;;;;4.20;1.50;;;;;;;18.68;65.92;99027.69;105086;1274;76097;-26
2022/07/07 05:50:59;;;;;;;2.30;1.40;;;;;;;18.37;66.41;99025.89;105176;1274;75578;-25
2022/07/07 05:53:26;;;;;;;2.40;1.20;;;;;;;18.42;65.80;99025.89;105068;1271;62456;-25
2022/07/07 05:55:54;;;;;;;2.00;1.50;;;;;;;18.50;65.33;99026.73;105141;1271;61727;-24
2022/07/07 05:58:21;;;;;;;1.80;1.30;;;;;;;18.47;66.50;99025.20;104676;1274;75650;-24
2022/07/07 06:00:49;;;;;;;5.90;2.10;;;;;;;18.40;66.09;99023.50;105075;1271;76950;-24
2022/07/07 06:03:16;;;;;;;1.10;1.00;;;;;;;18.42;66.51;99028.85;104974;1271;75458;-24
2022/07/07 06:05:44;;;;;;;2.70;1.20;;;;;;;18.67;65.39;99022.29;104991;1271;61154;-25
2022/07/07 06:08:11;;;;;;;6.50;1.40;;;;;;;18.80;64.89;99022.53;105041;1274;62708;-25
2022/07/07 06:10:39;;;;;;;2.20;1.30;;;;;;;18.72;65.12;99020.86;105017;1274;75294;-24
2022/07/07 06:13:06;;;;;;;2.00;1.10;;;;;;;19.01;64.26;99024.77;104990;1271;77044;-24
2022/07/07 06:15:33;;;;;;;3.80;1.60;;;;;;;18.93;63.69;99022.29;104744;1273;75628;-24
2022/07/07 06:18:04;;;;;;;4.00;1.40;;;;;;;19.07;63.33;99023.48;104772;1271;61982;-24
2022/07/07 06:20:36;;;;;;;1.60;1.10;;;;;;;19.23;62.73;99019.44;104787;1272;62848;-24
2022/07/07 06:23:03;;;;;;;1.20;1.10;;;;;;;19.45;62.56;99017.94;105081;1272;75650;-24
2022/07/07 06:25:30;;;;;;;1.70;1.10;;;;;;;19.64;61.88;99021.42;105059;1272;76021;-24
2022/07/07 06:27:58;;;;;;;2.50;0.90;;;;;;;19.58;60.62;99019.07;105057;1271;75470;-24
2022/07/07 06:30:39;;;;;;;3.50;1.00;;;;;;;19.43;59.96;99021.61;104640;1277;61169;-25
2022/07/07 06:33:07;;;;;;;3.40;1.00;;;;;;;18.94;59.91;99025.30;104588;1277;61777;-24
2022/07/07 06:35:34;;;;;;;11.50;1.40;;;;;;;18.93;60.95;99027.93;104501;1278;75552;-25
2022/07/07 06:38:02;;;;;;;2.70;1.10;;;;;;;19.11;60.95;99029.91;104402;1281;75873;-25
2022/07/07 06:40:29;;;;;;;3.50;1.20;;;;;;;19.09;61.14;99030.73;104546;1277;75427;-25
2022/07/07 06:42:56;;;;;;;3.10;1.20;;;;;;;18.91;61.45;99027.66;104552;1280;61939;-25
2022/07/07 06:45:26;;;;;;;1.20;1.00;;;;;;;19.12;61.55;99025.45;104520;1277;61122;-25
2022/07/07 06:47:55;;;;;;;13.60;1.80;;;;;;;19.32;60.25;99023.39;104658;1277;76838;-24
2022/07/07 06:50:24;;;;;;;2.90;1.20;;;;;;;19.59;59.27;99023.39;104404;1278;75953;-24
2022/07/07 06:52:52;;;;;;;1.30;1.00;;;;;;;19.80;58.77;99022.67;104516;1278;74391;-25
2022/07/07 06:55:19;;;;;;;1.20;0.80;;;;;;;19.89;57.93;99021.88;104755;1271;61050;-25
2022/07/07 06:57:47;;;;;;;2.70;1.10;;;;;;;19.52;57.02;99022.61;105090;1272;62565;-24
2022/07/07 07:00:15;;;;;;;1.80;1.00;;;;;;;19.71;57.19;99020.41;104721;1277;76760;-24
2022/07/07 07:02:43;;;;;;;1.40;0.90;;;;;;;20.09;56.48;99014.98;104983;1271;77050;-24
2022/07/07 07:05:11;;;;;;;4.70;1.00;;;;;;;20.18;55.67;99014.43;105015;1271;75609;-23
2022/07/07 07:07:39;;;;;;;3.40;0.90;;;;;;;20.31;54.41;99017.95;105127;1271;63063;-23
2022/07/07 07:10:08;;;;;;;3.50;1.00;;;;;;;20.60;53.70;99012.27;105049;1272;61035;-23
2022/07/07 07:12:35;;;;;;;1.60;1.00;;;;;;;20.74;53.17;99016.58;104986;1271;76561;-24
2022/07/07 07:15:03;;;;;;;2.80;1.10;;;;;;;20.87;52.93;99016.56;105117;1272;76986;-24
2022/07/07 07:17:32;;;;;;;1.70;1.00;;;;;;;20.43;52.56;99011.73;104799;1274;75503;-23
2022/07/07 07:20:01;;;;;;;10.40;1.20;;;;;;;20.66;52.47;99011.99;105094;1274;61923;-24
2022/07/07 07:22:37;;;;;;;3.90;1.20;;;;;;;20.83;52.33;99012.84;105119;1271;61540;-23
2022/07/07 07:25:05;;;;;;;2.50;1.00;;;;;;;20.84;51.68;99011.95;104676;1271;75490;-23
2022/07/07 07:27:34;;;;;;;4.10;1.00;;;;;;;20.69;50.41;99011.29;105124;1274;76809;-24
2022/07/07 07:30:02;;;;;;;3.00;1.10;;;;;;;20.70;51.72;99008.16;104745;1271;74586;-23
2022/07/07 07:32:30;;;;;;;3.60;1.20;;;;;;;20.44;50.64;99007.40;104720;1271;62827;-24
2022/07/07 07:34:57;;;;;;;1.70;0.90;;;;;;;20.38;52.24;99009.29;105028;1272;63094;-24
2022/07/07 07:37:25;;;;;;;1.00;0.80;;;;;;;20.73;52.50;99011.41;104974;1272;76455;-24
2022/07/07 07:39:52;;;;;;;4.00;1.00;;;;;;;21.03;51.52;99008.00;104806;1274;77069;-24
2022/07/07 07:42:21;;;;;;;1.50;1.00;;;;;;;20.64;51.86;99004.77;104994;1271;75427;-23
2022/07/07 07:47:46;;;;;;;2.40;0.90;;;;;;;21.58;50.48;99010.23;105078;1274;61099;-24
2022/07/07 07:50:15;;;;;;;4.40;1.40;;;;;;;21.64;50.21;99003.46;104695;1274;76262;-23
2022/07/07 07:52:43;;;;;;;8.70;1.10;;;;;;;21.70;49.32;99010.65;104665;1272;77012;-24
2022/07/07 07:55:12;;;;;;;1.10;0.80;;;;;;;22.01;48.99;99012.14;104708;1274;74336;-24
2022/07/07 07:57:40;;;;;;;0.80;0.70;;;;;;;22.13;46.33;99009.59;104641;1274;63044;-24
2022/07/07 08:00:10;;;;;;;1.90;0.70;;;;;;;21.86;44.57;99009.86;104791;1274;61101;-24
2022/07/07 08:02:40;;;;;;;1.20;0.40;;;;;;;21.92;45.45;99011.74;104803;1274;76376;-24
2022/07/07 08:05:07;;;;;;;1.90;0.70;;;;;;;22.12;44.69;99009.17;104900;1271;76913;-24
2022/07/07 08:07:35;;;;;;;0.60;0.50;;;;;;;22.38;44.96;99001.70;104919;1272;75368;-24
2022/07/07 08:10:05;;;;;;;5.40;0.70;;;;;;;22.29;43.01;99010.34;105076;1271;63246;-24
2022/07/07 08:12:33;;;;;;;1.20;0.50;;;;;;;22.39;42.75;99009.87;105093;1271;62962;-24
2022/07/07 08:15:01;;;;;;;2.10;0.60;;;;;;;22.20;42.26;99007.89;104875;1271;76536;-24
2022/07/07 08:17:29;;;;;;;2.90;0.70;;;;;;;22.40;42.73;99005.98;104929;1271;75808;-24
2022/07/07 08:19:57;;;;;;;1.50;0.70;;;;;;;22.56;42.93;99009.80;105002;1274;75440;-24
2022/07/07 08:22:27;;;;;;;14.60;1.40;;;;;;;22.59;41.96;99008.73;104838;1274;61724;-24
2022/07/07 08:24:54;;;;;;;2.00;0.90;;;;;;;22.18;42.50;99007.51;104670;1274;62152;-24
2022/07/07 08:27:23;;;;;;;3.70;0.80;;;;;;;22.11;42.68;99006.46;104773;1271;76517;-24
2022/07/07 08:29:50;;;;;;;1.80;0.60;;;;;;;22.34;42.55;99003.24;104914;1274;77641;-24
2022/07/07 08:32:17;;;;;;;1.00;0.50;;;;;;;22.14;42.18;99008.70;105012;1271;74134;-24
2022/07/07 08:34:45;;;;;;;1.10;0.60;;;;;;;22.68;43.25;99008.87;104841;1272;62092;-24
2022/07/07 08:37:12;;;;;;;3.90;1.00;;;;;;;23.04;42.95;99009.48;105100;1271;62914;-24
2022/07/07 08:39:40;;;;;;;1.30;0.80;;;;;;;23.38;42.74;99010.64;104921;1271;76413;-24
2022/07/07 08:42:07;;;;;;;1.10;0.50;;;;;;;23.68;41.62;99010.80;104726;1271;77034;-24
2022/07/07 08:44:35;;;;;;;3.30;0.60;;;;;;;23.26;41.06;99007.96;104765;1272;75238;-24
2022/07/07 08:47:04;;;;;;;2.90;0.80;;;;;;;23.15;40.52;99014.31;104898;1271;62779;-24
2022/07/07 08:49:31;;;;;;;1.30;0.60;;;;;;;23.20;39.74;99016.48;105103;1271;61152;-24
2022/07/07 08:51:58;;;;;;;1.60;0.50;;;;;;;23.12;41.28;99021.78;104783;1274;75499;-24
2022/07/07 08:54:26;;;;;;;0.90;0.60;;;;;;;23.22;40.79;99020.68;105099;1271;75856;-24
2022/07/07 08:56:54;;;;;;;0.80;0.50;;;;;;;23.14;40.63;99020.03;104856;1271;75819;-24
2022/07/07 08:59:22;;;;;;;3.00;1.70;;;;;;;23.24;40.98;99023.73;104547;1271;63044;-23
2022/07/07 09:01:56;;;;;;;1.10;0.50;;;;;;;23.12;40.96;99026.70;104749;1274;62127;-24
2022/07/07 09:04:25;;;;;;;1.10;0.80;;;;;;;23.09;40.31;99033.92;104616;1271;76477;-24
2022/07/07 09:07:01;;;;;;;6.20;0.60;;;;;;;23.34;39.49;99026.45;104759;1271;75977;-24
2022/07/07 09:09:43;;;;;;;1.90;0.60;;;;;;;23.49;39.06;99028.86;104806;1271;75766;-24
2022/07/07 09:12:12;;;;;;;1.30;0.50;;;;;;;23.05;40.04;99025.56;104876;1271;61844;-24
2022/07/07 09:14:41;;;;;;;1.50;0.90;;;;;;;23.48;41.02;99026.16;105131;1271;61752;-24
2022/07/07 09:17:16;;;;;;;1.00;0.80;;;;;;;23.70;40.49;99028.20;104900;1272;76570;-24
2022/07/07 09:19:43;;;;;;;1.20;0.60;;;;;;;24.00;38.96;99028.93;104886;1271;76763;-24
2022/07/07 09:22:11;;;;;;;1.20;0.60;;;;;;;24.28;38.64;99028.27;104784;1271;74881;-24
2022/07/07 09:25:07;;;;;;;3.80;1.20;;;;;;;24.15;38.70;99023.22;104669;1274;63130;-24
2022/07/07 09:28:06;;;;;;;3.20;1.20;;;;;;;24.83;39.51;99025.39;104715;1274;63021;-23
2022/07/07 09:30:38;;;;;;;1.80;0.80;;;;;;;24.74;36.68;99022.30;104780;1271;76512;-23
2022/07/07 09:33:10;;;;;;;1.10;0.80;;;;;;;24.69;37.79;99022.84;104708;1271;76992;-23
2022/07/07 09:38:28;;;;;;;6.80;4.70;;;;;;;23.85;38.86;99025.91;104826;1271;61109;-23
2022/07/07 09:41:03;;;;;;;1.40;0.90;;;;;;;24.35;39.24;99033.20;104848;1274;61376;-23
2022/07/07 09:43:38;;;;;;;2.00;0.60;;;;;;;23.92;38.28;99035.30;104773;1274;75302;-23
2022/07/07 09:46:24;;;;;;;1.10;0.70;;;;;;;24.37;37.96;99034.80;105112;1271;77036;-23
2022/07/07 09:48:52;;;;;;;1.30;0.70;;;;;;;24.27;37.23;99031.24;104709;1271;75369;-23
2022/07/07 09:51:25;;;;;;;3.10;0.70;;;;;;;24.26;37.81;99032.92;104766;1271;61970;-23
2022/07/07 09:54:14;;;;;;;1.70;0.60;;;;;;;24.63;38.56;99028.62;104733;1271;61261;-23
2022/07/07 09:56:46;;;;;;;0.90;0.50;;;;;;;24.81;36.78;99021.91;104852;1271;75944;-23
2022/07/07 09:59:15;;;;;;;2.40;0.60;;;;;;;24.90;38.15;99022.57;105040;1271;76374;-23
2022/07/07 10:01:44;;;;;;;2.30;0.70;;;;;;;24.95;37.01;99025.35;104778;1271;75697;-23
2022/07/07 10:04:13;;;;;;;1.60;0.60;;;;;;;25.14;35.96;99025.17;104710;1274;62807;-22
2022/07/07 10:06:44;;;;;;;2.80;0.60;;;;;;;24.92;37.43;99023.06;104836;1274;62811;-23
2022/07/07 10:09:16;;;;;;;1.10;0.70;;;;;;;24.75;37.37;99021.97;105069;1271;76059;-23
2022/07/07 10:11:49;;;;;;;1.00;0.60;;;;;;;24.40;37.10;99025.42;104696;1271;77064;-23
2022/07/07 10:14:28;;;;;;;0.90;0.60;;;;;;;24.44;38.32;99022.90;105081;1271;75254;-23
2022/07/07 10:16:56;;;;;;;5.70;0.80;;;;;;;24.14;38.38;99025.77;104752;1274;61932;-23
2022/07/07 10:19:25;;;;;;;4.60;0.80;;;;;;;24.29;38.43;99021.91;105048;1272;62094;-24
2022/07/07 10:21:54;;;;;;;1.80;0.70;;;;;;;24.94;37.35;99020.24;104856;1271;76626;-23
2022/07/07 10:24:25;;;;;;;3.80;0.90;;;;;;;25.56;38.33;99024.71;104934;1271;77159;-23
2022/07/07 10:26:55;;;;;;;1.80;0.80;;;;;;;25.57;35.58;99028.32;104773;1271;75064;-23
2022/07/07 10:29:38;;;;;;;2.90;0.70;;;;;;;25.77;36.05;99020.48;104681;1271;63122;-23
2022/07/07 10:32:09;;;;;;;1.40;0.60;;;;;;;25.73;34.92;99021.56;105040;1271;62808;-23
2022/07/07 10:34:38;;;;;;;2.90;0.90;;;;;;;25.84;35.29;99025.59;104848;1271;75596;-23
2022/07/07 10:37:10;;;;;;;1.40;0.60;;;;;;;25.99;35.06;99023.79;104851;1271;77040;-23
2022/07/07 10:39:41;;;;;;;4.20;0.60;;;;;;;25.78;35.62;99023.38;104663;1271;75401;-24
2022/07/07 10:42:14;;;;;;;0.90;0.50;;;;;;;25.66;35.77;99025.05;104644;1271;61157;-24
2022/07/07 10:44:43;;;;;;;1.20;0.70;;;;;;;25.78;35.06;99029.04;104851;1271;62451;-24
2022/07/07 10:47:11;;;;;;;1.00;0.50;;;;;;;26.09;34.35;99023.49;104652;1271;75367;-24
2022/07/07 10:49:41;;;;;;;1.60;0.60;;;;;;;25.88;34.86;99029.43;105029;1272;76771;-24
2022/07/07 10:52:22;;;;;;;1.00;0.60;;;;;;;25.95;35.57;99028.48;104619;1271;75194;-24
2022/07/07 10:55:02;;;;;;;0.70;0.60;;;;;;;25.69;35.76;99028.57;104914;1271;61035;-25
2022/07/07 10:57:43;;;;;;;2.00;0.70;;;;;;;25.42;36.91;99033.31;104804;1271;61938;-24
2022/07/07 11:00:38;;;;;;;7.60;2.40;;;;;;;25.33;37.00;99027.63;105165;1271;76428;-24
2022/07/07 11:03:05;;;;;;;1.40;0.80;;;;;;;24.64;37.37;99029.59;104947;1271;76020;-25
2022/07/07 11:05:33;;;;;;;1.90;0.80;;;;;;;24.60;36.97;99027.86;104754;1274;75376;-24
2022/07/07 11:08:06;;;;;;;17.30;2.00;;;;;;;24.43;35.49;99027.91;104872;1271;62007;-24
2022/07/07 11:10:36;;;;;;;2.90;0.60;;;;;;;24.55;35.41;99023.96;104769;1272;62414;-24
2022/07/07 11:13:16;;;;;;;1.10;0.60;;;;;;;24.55;36.25;99021.67;104908;1271;76492;-24
2022/07/07 11:15:49;;;;;;;15.60;1.30;;;;;;;24.70;36.17;99025.08;104886;1271;76961;-24
2022/07/07 11:18:19;;;;;;;1.30;0.70;;;;;;;24.89;35.73;99027.60;104569;1274;75181;-25
2022/07/07 11:21:01;;;;;;;1.40;0.50;;;;;;;24.91;35.47;99029.86;104876;1271;62009;-24
2022/07/07 11:23:43;;;;;;;0.40;0.40;;;;;;;25.09;34.38;99022.03;104979;1271;62263;-24
2022/07/07 11:26:11;;;;;;;3.20;0.70;;;;;;;25.09;35.77;99026.58;104780;1271;76266;-24
2022/07/07 11:28:44;;;;;;;0.90;0.50;;;;;;;24.28;35.13;99024.29;104850;1271;76832;-24
2022/07/07 11:31:12;;;;;;;5.00;0.70;;;;;;;24.68;34.97;99026.95;105078;1271;75530;-24
2022/07/07 11:33:40;;;;;;;3.40;0.80;;;;;;;24.48;35.67;99027.81;104568;1274;383028;-24
2022/07/07 11:36:19;;;;;;;9.10;5.80;;;;;;;23.96;35.22;99026.81;105062;1271;61982;-24
2022/07/07 11:38:48;;;;;;;2.60;0.90;;;;;;;23.87;35.10;99024.35;104835;1271;75234;-24
2022/07/07 11:41:18;;;;;;;2.10;0.60;;;;;;;23.63;35.00;99021.92;104666;1271;77353;-24
2022/07/07 11:43:57;;;;;;;4.00;2.70;;;;;;;23.64;35.06;99019.67;104897;1274;75497;-24
2022/07/07 11:46:26;;;;;;;6.20;4.60;;;;;;;23.59;35.22;99023.27;104883;1271;62743;-24
2022/07/07 11:48:53;;;;;;;3.60;1.60;;;;;;;23.95;35.77;99015.89;104950;1271;63103;-24
2022/07/07 11:51:28;;;;;;;3.70;0.80;;;;;;;24.43;34.95;99013.27;104756;1271;76224;-24
2022/07/07 11:53:57;;;;;;;3.30;2.30;;;;;;;24.86;35.20;99011.60;104886;1271;76948;-24
2022/07/07 11:56:29;;;;;;;3.80;1.10;;;;;;;24.96;35.85;99012.38;104894;1271;75520;-24